Time;durP1;ratioP1;P1;durP2;ratioP2;P2;SDS_P1;SDS_P2;PMS_P1;PMS_P2;Temp;Humidity;BMP_temperature;BMP_pressure;BME280_temperature;BME280_humidity;BME280_pressure;Samples;Min_cycle;Max_cycle;Signal;HPM_P1;HPM_P2
2023/05/12 00:02:18;;;;;;;2.97;1.50;;;15.60;49.60;;;;;;5013101;28;20592;-68
2023/05/12 00:04:44;;;;;;;2.40;1.20;;;15.70;49.90;;;;;;5012335;28;20216;-69
2023/05/12 00:07:09;;;;;;;2.50;1.40;;;15.70;49.00;;;;;;5010410;28;20191;-68
2023/05/12 00:09:35;;;;;;;2.30;1.20;;;15.80;47.80;;;;;;5015974;28;20194;-68
2023/05/12 00:12:01;;;;;;;2.60;1.50;;;15.70;48.10;;;;;;5018217;28;20210;-68
2023/05/12 00:14:27;;;;;;;56.80;1.70;;;15.70;48.50;;;;;;5014022;28;20213;-68
2023/05/12 00:16:52;;;;;;;19.53;1.50;;;15.80;48.40;;;;;;5011910;28;20428;-68
2023/05/12 00:19:19;;;;;;;16.77;1.97;;;15.80;48.30;;;;;;5011931;28;20177;-68
2023/05/12 00:21:44;;;;;;;16.10;1.70;;;15.80;48.60;;;;;;5014055;28;20229;-68
2023/05/12 00:24:10;;;;;;;12.10;1.40;;;15.80;47.80;;;;;;4995904;28;20906;-68
2023/05/12 00:26:35;;;;;;;1.30;1.23;;;15.90;47.80;;;;;;5011652;28;20189;-68
2023/05/12 00:29:01;;;;;;;1.10;1.10;;;15.80;47.00;;;;;;5009461;28;20193;-68
2023/05/12 00:31:29;;;;;;;1.30;1.20;;;15.80;47.80;;;;;;5015226;28;20192;-68
2023/05/12 00:33:54;;;;;;;1.33;1.23;;;15.80;49.00;;;;;;5032664;28;20670;-68
2023/05/12 00:36:20;;;;;;;1.60;1.50;;;15.80;48.60;;;;;;5033611;28;20420;-68
2023/05/12 00:38:45;;;;;;;2.07;1.50;;;15.70;49.20;;;;;;5003850;28;20208;-69
2023/05/12 00:41:11;;;;;;;1.30;1.20;;;15.70;47.50;;;;;;5013972;28;20230;-68
2023/05/12 00:43:37;;;;;;;1.80;1.77;;;15.80;48.20;;;;;;5026699;28;20199;-69
2023/05/12 00:46:04;;;;;;;1.10;1.10;;;15.80;47.40;;;;;;5013826;28;20184;-68
2023/05/12 00:48:31;;;;;;;1.33;1.23;;;15.80;47.30;;;;;;4995397;28;20675;-68
2023/05/12 00:50:58;;;;;;;1.10;1.10;;;15.80;47.50;;;;;;5008834;28;20961;-69
2023/05/12 00:53:24;;;;;;;1.67;1.33;;;15.90;46.70;;;;;;5025707;23;20498;-67
2023/05/12 00:55:49;;;;;;;1.50;1.40;;;15.90;47.00;;;;;;5003787;28;20853;-67
2023/05/12 00:58:15;;;;;;;1.40;1.30;;;16.00;46.50;;;;;;5025039;28;20197;-68
2023/05/12 01:00:41;;;;;;;1.93;1.80;;;16.10;46.50;;;;;;5023361;28;20177;-67
2023/05/12 01:03:07;;;;;;;1.60;1.50;;;16.10;45.50;;;;;;5010687;28;20677;-67
2023/05/12 01:05:41;;;;;;;1.60;1.50;;;16.10;45.60;;;;;;5014985;28;20287;-68
2023/05/12 01:08:08;;;;;;;1.67;1.57;;;15.90;46.70;;;;;;5008892;28;20445;-67
2023/05/12 01:10:33;;;;;;;4.83;2.53;;;16.10;46.20;;;;;;5011853;28;20827;-68
2023/05/12 01:12:59;;;;;;;1.40;1.30;;;16.00;46.60;;;;;;5010266;28;20995;-67
2023/05/12 01:15:25;;;;;;;1.40;1.30;;;15.80;47.10;;;;;;5022298;28;20213;-67
2023/05/12 01:18:00;;;;;;;1.77;1.67;;;15.90;47.80;;;;;;5033120;28;20172;-67
2023/05/12 01:20:26;;;;;;;1.60;1.50;;;15.90;47.60;;;;;;5011544;28;20686;-68
2023/05/12 01:22:54;;;;;;;1.93;1.83;;;15.80;48.40;;;;;;5003585;28;20453;-68
2023/05/12 01:25:23;;;;;;;1.87;1.77;;;16.00;47.40;;;;;;5007610;28;20452;-68
2023/05/12 01:27:49;;;;;;;1.97;1.60;;;16.00;47.10;;;;;;5019189;28;20520;-67
2023/05/12 01:30:17;;;;;;;1.67;1.40;;;15.90;47.80;;;;;;5008913;28;20524;-68
2023/05/12 01:32:43;;;;;;;1.87;1.77;;;15.70;47.80;;;;;;4999811;28;20475;-68
2023/05/12 01:35:09;;;;;;;2.37;2.17;;;15.80;47.80;;;;;;5009716;28;20824;-70
2023/05/12 01:37:35;;;;;;;1.30;1.20;;;15.90;46.90;;;;;;5022101;28;20423;-70
2023/05/12 01:40:01;;;;;;;1.70;1.60;;;15.90;47.00;;;;;;5023201;28;20433;-69
2023/05/12 01:42:27;;;;;;;1.63;1.53;;;15.90;47.00;;;;;;5010772;28;20190;-70
2023/05/12 01:44:53;;;;;;;1.60;1.50;;;15.90;47.60;;;;;;5014773;28;20437;-70
2023/05/12 01:47:19;;;;;;;1.30;1.20;;;15.90;48.30;;;;;;5010466;28;20810;-68
2023/05/12 01:49:45;;;;;;;1.83;1.73;;;15.90;48.40;;;;;;5010998;28;20585;-70
2023/05/12 01:52:11;;;;;;;2.43;2.03;;;15.80;48.20;;;;;;5012795;28;20410;-68
2023/05/12 01:54:37;;;;;;;1.97;1.87;;;15.80;47.80;;;;;;5007392;28;20223;-68
2023/05/12 01:57:05;;;;;;;1.70;1.60;;;15.80;48.00;;;;;;5006104;28;20204;-67
2023/05/12 01:59:31;;;;;;;1.83;1.57;;;15.60;48.10;;;;;;5009696;28;20902;-68
2023/05/12 02:01:56;;;;;;;1.30;1.20;;;15.40;49.20;;;;;;5011418;28;20456;-68
2023/05/12 02:04:23;;;;;;;2.37;2.20;;;15.00;50.80;;;;;;5008266;28;20242;-68
2023/05/12 02:06:50;;;;;;;1.80;1.70;;;14.60;52.70;;;;;;5002327;28;20190;-66
2023/05/12 02:09:16;;;;;;;2.03;1.90;;;14.60;54.40;;;;;;5010063;28;20517;-66
2023/05/12 02:11:41;;;;;;;1.53;1.43;;;14.50;53.90;;;;;;5007876;28;20510;-68
2023/05/12 02:14:07;;;;;;;1.90;1.80;;;14.60;53.50;;;;;;5011369;28;20215;-68
2023/05/12 02:16:33;;;;;;;1.87;1.77;;;14.10;56.30;;;;;;5013114;28;20605;-68
2023/05/12 02:18:58;;;;;;;1.67;1.57;;;14.20;57.10;;;;;;5012409;28;20194;-69
2023/05/12 02:21:24;;;;;;;1.40;1.30;;;14.70;55.30;;;;;;5012265;28;20652;-70
2023/05/12 02:23:50;;;;;;;1.50;1.40;;;14.90;53.60;;;;;;5008395;28;20199;-70
2023/05/12 02:26:16;;;;;;;1.40;1.30;;;14.60;53.60;;;;;;5005301;28;20447;-68
2023/05/12 02:28:41;;;;;;;1.87;1.77;;;15.00;53.20;;;;;;5013393;28;20184;-68
2023/05/12 02:31:07;;;;;;;1.70;1.60;;;15.40;50.70;;;;;;5011950;28;20458;-68
2023/05/12 02:33:33;;;;;;;1.83;1.73;;;15.50;50.60;;;;;;5010984;28;20218;-68
2023/05/12 02:35:58;;;;;;;1.87;1.77;;;15.30;50.00;;;;;;5010493;28;20982;-68
2023/05/12 02:38:24;;;;;;;1.50;1.40;;;15.40;49.60;;;;;;5010570;28;20174;-68
2023/05/12 02:40:50;;;;;;;2.17;2.00;;;14.90;52.40;;;;;;5010597;28;20253;-69
2023/05/12 02:43:15;;;;;;;1.60;1.50;;;15.00;51.80;;;;;;5011209;28;20205;-70
2023/05/12 02:45:41;;;;;;;1.97;1.53;;;14.70;52.90;;;;;;5010834;28;20540;-68
2023/05/12 02:48:06;;;;;;;1.70;1.60;;;14.40;55.00;;;;;;5005924;28;20201;-69
2023/05/12 02:50:32;;;;;;;1.77;1.60;;;15.00;52.40;;;;;;5007507;28;20189;-67
2023/05/12 02:52:58;;;;;;;1.50;1.40;;;15.40;51.00;;;;;;5010852;28;20566;-66
2023/05/12 02:55:23;;;;;;;1.57;1.53;;;15.50;50.20;;;;;;5019929;28;20845;-66
2023/05/12 02:57:49;;;;;;;2.53;2.33;;;15.60;50.00;;;;;;5023531;28;20193;-66
2023/05/12 03:00:15;;;;;;;1.93;1.83;;;15.80;48.10;;;;;;5013094;28;20189;-68
2023/05/12 03:02:41;;;;;;;2.20;2.00;;;15.90;47.10;;;;;;5011140;28;20313;-70
2023/05/12 03:05:08;;;;;;;2.37;1.70;;;15.90;47.80;;;;;;5010115;28;20218;-71
2023/05/12 03:07:34;;;;;;;1.73;1.53;;;15.70;48.70;;;;;;5011730;28;20179;-68
2023/05/12 03:10:00;;;;;;;1.90;1.80;;;15.50;49.20;;;;;;5005934;28;20575;-69
2023/05/12 03:12:28;;;;;;;2.73;2.53;;;15.60;49.50;;;;;;5003047;28;20440;-68
2023/05/12 03:14:54;;;;;;;1.20;1.10;;;15.60;49.50;;;;;;5010989;28;20431;-68
2023/05/12 03:17:20;;;;;;;1.80;1.70;;;15.60;48.70;;;;;;5007002;28;20418;-68
2023/05/12 03:19:46;;;;;;;1.70;1.60;;;15.60;48.30;;;;;;5008575;28;20464;-68
2023/05/12 03:22:11;;;;;;;1.83;1.73;;;15.60;49.30;;;;;;5020286;28;20189;-66
2023/05/12 03:24:37;;;;;;;1.87;1.63;;;15.60;49.30;;;;;;5032690;28;20208;-68
2023/05/12 03:27:03;;;;;;;1.77;1.67;;;15.70;48.70;;;;;;5035082;28;20418;-68
2023/05/12 03:29:29;;;;;;;1.27;1.20;;;15.60;48.50;;;;;;5012390;28;20225;-68
2023/05/12 03:31:54;;;;;;;2.13;1.97;;;15.70;47.90;;;;;;5014511;28;20187;-68
2023/05/12 03:34:20;;;;;;;1.47;1.37;;;15.60;48.60;;;;;;5025906;28;20205;-68
2023/05/12 03:36:45;;;;;;;1.47;1.37;;;15.60;49.60;;;;;;5009224;28;20179;-69
2023/05/12 03:39:11;;;;;;;1.53;1.43;;;15.80;47.40;;;;;;5008064;28;20671;-67
2023/05/12 03:41:37;;;;;;;1.67;1.57;;;15.90;46.60;;;;;;5007343;28;20189;-66
2023/05/12 03:44:04;;;;;;;2.23;2.03;;;16.00;46.10;;;;;;5014752;28;20212;-71
2023/05/12 03:46:30;;;;;;;1.50;1.40;;;16.10;45.40;;;;;;5014995;28;20894;-70
2023/05/12 03:48:56;;;;;;;1.73;1.63;;;15.80;46.30;;;;;;5013493;28;20422;-70
2023/05/12 03:51:21;;;;;;;1.40;1.30;;;15.70;47.10;;;;;;5011076;28;20440;-68
2023/05/12 03:53:47;;;;;;;16.47;2.53;;;15.60;47.00;;;;;;5020686;28;20598;-69
2023/05/12 03:56:14;;;;;;;1.73;1.63;;;15.60;48.00;;;;;;5030618;28;20181;-68
2023/05/12 03:58:40;;;;;;;4.47;2.33;;;15.60;48.60;;;;;;5034650;28;20312;-68
2023/05/12 04:01:05;;;;;;;1.50;1.40;;;15.60;49.10;;;;;;5015306;28;20463;-68
2023/05/12 04:03:31;;;;;;;4.20;2.00;;;15.60;48.50;;;;;;5009209;28;20206;-68
2023/05/12 04:05:58;;;;;;;1.67;1.60;;;15.80;47.30;;;;;;5024281;28;20186;-68
2023/05/12 04:08:24;;;;;;;1.30;1.20;;;16.00;45.40;;;;;;5020434;28;20241;-68
2023/05/12 04:10:53;;;;;;;1.57;1.47;;;15.90;45.70;;;;;;5011279;28;20444;-68
2023/05/12 04:13:18;;;;;;;2.20;2.07;;;16.00;45.20;;;;;;5006350;28;20824;-68
2023/05/12 04:15:44;;;;;;;1.60;1.53;;;16.00;46.40;;;;;;5023130;28;20443;-68
2023/05/12 04:18:10;;;;;;;1.60;1.50;;;15.80;47.10;;;;;;5010713;28;22007;-68
2023/05/12 04:20:35;;;;;;;1.70;1.60;;;15.70;48.30;;;;;;5008195;28;20207;-68
2023/05/12 04:23:01;;;;;;;1.53;1.43;;;15.70;48.90;;;;;;5005493;28;20465;-68
2023/05/12 04:25:27;;;;;;;2.73;2.50;;;15.80;47.60;;;;;;5018282;28;20557;-68
2023/05/12 04:27:52;;;;;;;1.30;1.20;;;15.70;48.10;;;;;;5011882;28;20197;-68
2023/05/12 04:30:18;;;;;;;1.63;1.53;;;15.80;47.00;;;;;;5018635;28;20185;-68
2023/05/12 04:32:43;;;;;;;1.77;1.57;;;15.90;46.70;;;;;;5012843;28;20211;-68
2023/05/12 04:35:09;;;;;;;1.30;1.20;;;15.90;47.30;;;;;;5006480;28;20185;-68
2023/05/12 04:37:35;;;;;;;1.70;1.60;;;15.90;47.10;;;;;;5016418;28;20197;-68
2023/05/12 04:40:00;;;;;;;1.83;1.73;;;15.80;48.20;;;;;;5033623;28;20180;-68
2023/05/12 04:42:26;;;;;;;1.73;1.63;;;15.90;47.20;;;;;;5011717;28;20186;-68
2023/05/12 04:44:51;;;;;;;2.00;1.93;;;15.80;47.30;;;;;;5011789;28;20182;-68
2023/05/12 04:47:17;;;;;;;1.70;1.60;;;15.90;47.10;;;;;;5012174;28;20611;-68
2023/05/12 04:49:43;;;;;;;1.93;1.83;;;15.80;46.90;;;;;;5025542;28;20254;-68
2023/05/12 04:52:08;;;;;;;1.40;1.30;;;15.90;48.30;;;;;;5018325;28;20183;-68
2023/05/12 04:54:34;;;;;;;1.33;1.23;;;15.90;47.80;;;;;;5010534;28;20215;-68
2023/05/12 04:56:59;;;;;;;1.67;1.57;;;15.90;46.80;;;;;;5018920;28;20193;-68
2023/05/12 04:59:25;;;;;;;2.00;1.90;;;15.90;47.20;;;;;;5017769;28;20241;-70
2023/05/12 05:01:50;;;;;;;2.00;1.90;;;16.00;46.10;;;;;;5012063;28;20549;-68
2023/05/12 05:04:16;;;;;;;2.40;2.20;;;16.10;46.40;;;;;;5010820;28;20250;-68
2023/05/12 05:06:42;;;;;;;1.70;1.60;;;16.10;47.00;;;;;;4994817;28;20198;-69
2023/05/12 05:09:07;;;;;;;2.20;2.00;;;16.00;47.80;;;;;;5008809;28;20175;-69
2023/05/12 05:11:33;;;;;;;1.67;1.57;;;16.10;47.20;;;;;;5013315;28;20179;-69
2023/05/12 05:13:59;;;;;;;1.80;1.70;;;16.60;45.70;;;;;;5012375;28;20219;-69
2023/05/12 05:16:24;;;;;;;1.93;1.83;;;16.60;45.60;;;;;;5006777;28;20274;-69
2023/05/12 05:18:50;;;;;;;1.47;1.37;;;16.50;46.30;;;;;;5007748;28;20191;-69
2023/05/12 05:21:15;;;;;;;1.70;1.60;;;16.50;44.70;;;;;;5021015;28;20178;-69
2023/05/12 05:23:41;;;;;;;1.60;1.50;;;16.40;45.60;;;;;;5030913;28;20602;-68
2023/05/12 05:26:07;;;;;;;1.43;1.33;;;16.50;45.20;;;;;;5012351;28;20714;-69
2023/05/12 05:28:34;;;;;;;3.87;2.07;;;16.40;44.60;;;;;;5004974;28;20263;-69
2023/05/12 05:30:59;;;;;;;1.47;1.37;;;16.30;44.80;;;;;;5017898;28;20439;-69
2023/05/12 05:33:25;;;;;;;1.93;1.83;;;16.50;44.70;;;;;;5012998;28;20513;-69
2023/05/12 05:35:51;;;;;;;1.37;1.27;;;16.50;44.30;;;;;;5010245;28;20241;-69
2023/05/12 05:38:16;;;;;;;1.50;1.40;;;16.60;44.80;;;;;;5004178;28;20181;-69
2023/05/12 05:40:42;;;;;;;2.23;2.03;;;16.70;44.60;;;;;;5004192;28;20659;-69
2023/05/12 05:43:08;;;;;;;1.77;1.67;;;16.60;44.70;;;;;;5018277;28;20201;-69
2023/05/12 05:45:34;;;;;;;2.07;1.93;;;16.50;44.80;;;;;;5032310;28;20574;-69
2023/05/12 05:48:00;;;;;;;1.50;1.40;;;15.60;47.10;;;;;;5031269;28;20190;-69
2023/05/12 05:50:26;;;;;;;2.70;1.87;;;15.70;47.60;;;;;;5000907;28;20437;-68
2023/05/12 05:52:53;;;;;;;2.27;2.07;;;15.90;47.00;;;;;;5010070;28;20213;-69
2023/05/12 05:55:19;;;;;;;1.47;1.37;;;16.30;45.50;;;;;;5029263;28;20188;-69
2023/05/12 05:57:45;;;;;;;1.70;1.60;;;16.30;45.60;;;;;;5032358;28;20410;-69
2023/05/12 06:00:11;;;;;;;2.60;1.87;;;16.20;44.60;;;;;;5029085;28;20415;-69
2023/05/12 06:02:37;;;;;;;2.30;2.10;;;16.30;45.90;;;;;;4999193;28;20181;-69
2023/05/12 06:05:02;;;;;;;1.83;1.73;;;16.40;45.10;;;;;;5020619;28;20455;-69
2023/05/12 06:07:28;;;;;;;3.20;2.20;;;16.00;45.80;;;;;;5013710;28;20547;-69
2023/05/12 06:09:54;;;;;;;1.70;1.60;;;16.50;43.60;;;;;;5013576;28;20177;-68
2023/05/12 06:12:20;;;;;;;1.80;1.70;;;16.20;44.00;;;;;;5001122;28;20201;-68
2023/05/12 06:14:45;;;;;;;1.40;1.30;;;15.50;46.80;;;;;;5015567;28;20208;-73
2023/05/12 06:17:11;;;;;;;1.90;1.80;;;15.50;47.80;;;;;;5032565;28;20408;-72
2023/05/12 06:19:37;;;;;;;1.73;1.43;;;16.00;45.10;;;;;;5016111;28;20185;-72
2023/05/12 06:22:03;;;;;;;1.50;1.40;;;16.30;44.70;;;;;;5011421;28;20560;-77
2023/05/12 06:24:28;;;;;;;1.50;1.40;;;16.30;44.80;;;;;;5002395;28;20460;-77
2023/05/12 06:26:55;;;;;;;2.30;2.13;;;16.20;43.80;;;;;;5002400;28;22013;-78
2023/05/12 06:29:21;;;;;;;1.97;1.87;;;15.90;43.90;;;;;;5002097;28;20259;-78
2023/05/12 06:31:47;;;;;;;1.90;1.80;;;15.60;45.10;;;;;;5009210;28;20523;-78
2023/05/12 06:34:12;;;;;;;1.53;1.43;;;15.60;46.00;;;;;;5006156;28;20526;-78
2023/05/12 06:36:38;;;;;;;1.60;1.50;;;15.90;45.50;;;;;;5028708;28;20170;-78
2023/05/12 06:39:04;;;;;;;1.40;1.30;;;16.30;46.30;;;;;;5031406;28;20638;-78
2023/05/12 06:41:30;;;;;;;1.40;1.30;;;17.50;44.30;;;;;;5011261;28;21221;-78
2023/05/12 06:43:56;;;;;;;2.13;1.97;;;16.00;44.80;;;;;;5000145;28;20233;-74
2023/05/12 06:46:22;;;;;;;1.70;1.60;;;15.90;45.50;;;;;;5010450;28;20439;-69
2023/05/12 06:48:47;;;;;;;1.93;1.83;;;15.70;46.40;;;;;;5012371;28;20173;-69
2023/05/12 06:51:13;;;;;;;1.80;1.70;;;15.90;46.50;;;;;;5009735;28;20428;-69
2023/05/12 06:53:42;;;;;;;1.60;1.50;;;16.30;46.00;;;;;;5010330;28;20215;-69
2023/05/12 06:58:35;;;;;;;2.90;2.70;;;17.20;41.40;;;;;;5035025;23;20499;-73
2023/05/12 07:01:00;;;;;;;1.93;1.83;;;17.20;41.50;;;;;;5017890;28;21144;-75
2023/05/12 07:03:26;;;;;;;1.87;1.77;;;17.50;41.70;;;;;;5030596;28;20424;-77
2023/05/12 07:05:51;;;;;;;2.00;1.90;;;17.70;39.80;;;;;;5002208;28;20196;-76
2023/05/12 07:08:17;;;;;;;2.20;2.00;;;16.90;40.70;;;;;;5002496;28;20197;-75
2023/05/12 07:10:42;;;;;;;3.33;3.13;;;16.70;43.30;;;;;;4993611;28;20635;-75
2023/05/12 07:13:08;;;;;;;1.80;1.70;;;16.90;42.50;;;;;;4996081;28;20240;-74
2023/05/12 07:15:34;;;;;;;1.60;1.50;;;17.30;40.40;;;;;;4997730;28;20192;-76
2023/05/12 07:17:59;;;;;;;1.77;1.73;;;17.80;40.30;;;;;;4995174;28;20252;-75
2023/05/12 07:20:25;;;;;;;5.20;2.73;;;18.00;39.80;;;;;;5013857;28;20224;-74
2023/05/12 07:22:53;;;;;;;2.00;1.90;;;18.10;39.00;;;;;;5010260;28;20189;-75
2023/05/12 07:25:19;;;;;;;2.00;1.90;;;17.90;39.10;;;;;;5021872;28;20175;-76
2023/05/12 07:27:44;;;;;;;1.70;1.60;;;17.30;40.80;;;;;;5029316;28;20449;-76
2023/05/12 07:30:10;;;;;;;1.80;1.70;;;17.60;39.50;;;;;;5005404;28;20216;-75
2023/05/12 07:32:36;;;;;;;2.50;2.37;;;18.00;39.80;;;;;;5002604;28;20270;-75
2023/05/12 07:35:02;;;;;;;2.07;1.93;;;18.30;38.60;;;;;;4999057;28;20433;-75
2023/05/12 07:37:28;;;;;;;1.57;1.47;;;18.50;38.00;;;;;;4997381;28;20209;-75
2023/05/12 07:39:54;;;;;;;1.73;1.63;;;18.10;39.10;;;;;;4997694;28;20428;-75
2023/05/12 07:42:21;;;;;;;26.77;3.73;;;17.90;39.30;;;;;;4998251;28;20425;-74
2023/05/12 07:44:46;;;;;;;2.20;2.00;;;17.90;39.70;;;;;;4999629;28;20185;-75
2023/05/12 07:47:12;;;;;;;1.97;1.87;;;18.50;39.10;;;;;;4997902;28;20471;-75
2023/05/12 07:49:38;;;;;;;1.90;1.80;;;18.40;37.10;;;;;;4997695;28;20184;-74
2023/05/12 07:52:03;;;;;;;2.13;1.97;;;18.20;38.10;;;;;;4979469;28;20678;-75
2023/05/12 07:54:29;;;;;;;1.90;1.80;;;18.70;36.60;;;;;;4997312;28;20206;-76
2023/05/12 07:56:55;;;;;;;1.73;1.63;;;19.10;36.70;;;;;;4996925;28;20289;-75
2023/05/12 07:59:20;;;;;;;1.73;1.63;;;18.70;38.20;;;;;;4996677;28;20278;-75
2023/05/12 08:01:46;;;;;;;2.00;1.90;;;18.20;37.40;;;;;;4997406;28;20284;-74
2023/05/12 08:04:12;;;;;;;2.20;2.00;;;17.10;39.00;;;;;;4996967;28;20677;-76
2023/05/12 08:06:37;;;;;;;2.80;2.60;;;17.10;41.60;;;;;;4999289;28;20266;-76
2023/05/12 08:09:03;;;;;;;1.93;1.83;;;17.40;39.30;;;;;;4995565;28;20193;-73
2023/05/12 08:11:28;;;;;;;5.53;2.30;;;17.00;39.70;;;;;;4978594;28;20194;-73
2023/05/12 08:13:54;;;;;;;1.60;1.50;;;16.50;41.10;;;;;;4986836;28;20212;-75
2023/05/12 08:16:20;;;;;;;2.13;1.90;;;17.70;39.00;;;;;;4994145;28;20176;-76
2023/05/12 08:18:45;;;;;;;1.80;1.70;;;17.70;39.10;;;;;;4993950;28;20328;-75
2023/05/12 08:21:11;;;;;;;1.73;1.70;;;17.20;39.80;;;;;;4992984;28;20704;-76
2023/05/12 08:23:37;;;;;;;1.83;1.73;;;17.30;40.00;;;;;;4994626;28;20195;-76
2023/05/12 08:26:03;;;;;;;1.90;1.80;;;18.10;40.80;;;;;;4995100;28;20191;-76
2023/05/12 08:28:30;;;;;;;1.50;1.40;;;18.50;37.90;;;;;;4994600;28;20224;-76
2023/05/12 08:30:56;;;;;;;1.53;1.43;;;19.20;37.20;;;;;;4996786;28;20534;-76
2023/05/12 08:33:22;;;;;;;1.87;1.87;;;19.40;33.80;;;;;;5001725;28;20466;-76
2023/05/12 08:35:47;;;;;;;1.97;1.87;;;19.20;35.00;;;;;;4994735;28;20412;-75
2023/05/12 08:38:13;;;;;;;2.00;1.90;;;18.80;34.30;;;;;;4977678;28;20205;-75
2023/05/12 08:41:12;;;;;;;1.77;1.70;;;17.90;36.70;;;;;;4996463;28;20189;-75
2023/05/12 08:43:43;;;;;;;1.70;1.60;;;17.70;37.80;;;;;;5005127;28;20186;-76
2023/05/12 08:46:10;;;;;;;1.57;1.47;;;18.20;38.60;;;;;;5014305;28;20419;-74
2023/05/12 08:48:38;;;;;;;1.53;1.43;;;18.90;37.80;;;;;;5013992;28;20416;-75
2023/05/12 08:51:10;;;;;;;1.70;1.60;;;19.50;34.20;;;;;;5011187;28;20463;-76
2023/05/12 08:53:41;;;;;;;1.50;1.40;;;19.80;35.60;;;;;;5006874;28;20463;-76
2023/05/12 08:56:10;;;;;;;1.50;1.40;;;19.50;35.40;;;;;;5009006;28;20445;-76
2023/05/12 08:58:36;;;;;;;1.50;1.43;;;19.70;34.30;;;;;;5013626;28;20444;-76
2023/05/12 09:01:06;;;;;;;1.50;1.40;;;19.70;34.50;;;;;;5013643;28;20554;-74
2023/05/12 09:03:33;;;;;;;1.63;1.53;;;20.00;33.60;;;;;;4998724;28;20460;-76
2023/05/12 09:05:59;;;;;;;1.90;1.80;;;19.80;33.20;;;;;;5002073;28;20428;-77
2023/05/12 09:08:28;;;;;;;2.07;1.90;;;19.80;34.10;;;;;;5011296;28;20505;-76
2023/05/12 09:10:55;;;;;;;1.77;1.70;;;19.90;33.50;;;;;;5013635;28;20506;-76
2023/05/12 09:14:02;;;;;;;1.87;1.77;;;19.20;33.80;;;;;;5002004;28;20482;-75
2023/05/12 09:16:31;;;;;;;1.60;1.50;;;19.40;33.60;;;;;;4972154;28;20425;-74
2023/05/12 09:18:59;;;;;;;1.70;1.60;;;18.60;34.60;;;;;;4996591;28;20444;-76
2023/05/12 09:21:25;;;;;;;1.60;1.50;;;18.50;36.60;;;;;;5011175;28;20407;-75
2023/05/12 09:24:05;;;;;;;1.70;1.60;;;19.40;34.90;;;;;;5012845;28;20621;-76
2023/05/12 09:26:51;;;;;;;2.17;2.00;;;20.00;32.50;;;;;;5013288;28;20554;-74
2023/05/12 09:29:18;;;;;;;1.77;1.67;;;20.10;31.30;;;;;;5000612;28;20443;-76
2023/05/12 09:31:53;;;;;;;2.17;2.03;;;20.60;32.20;;;;;;5004697;28;20443;-76
2023/05/12 09:34:34;;;;;;;1.50;1.40;;;20.80;31.80;;;;;;5004459;28;20474;-76
2023/05/12 09:37:02;;;;;;;1.53;1.43;;;20.30;32.20;;;;;;5001683;28;20811;-76
2023/05/12 09:39:28;;;;;;;3.40;2.47;;;19.90;33.20;;;;;;5012425;28;20429;-76
2023/05/12 09:41:54;;;;;;;1.60;1.50;;;19.80;30.90;;;;;;5014454;28;20404;-76
2023/05/12 09:44:20;;;;;;;1.80;1.70;;;19.30;33.70;;;;;;5013558;28;20208;-75
2023/05/12 09:46:47;;;;;;;1.70;1.60;;;19.60;36.30;;;;;;5003248;28;20204;-76
2023/05/12 09:49:17;;;;;;;1.70;1.60;;;19.90;35.30;;;;;;5004769;28;20471;-76
2023/05/12 09:51:43;;;;;;;1.60;1.50;;;20.10;34.20;;;;;;5012934;28;20484;-75
2023/05/12 09:54:09;;;;;;;1.70;1.33;;;20.30;31.80;;;;;;5012480;28;21087;-75
2023/05/12 09:56:36;;;;;;;1.50;1.40;;;19.50;32.30;;;;;;5008943;28;20585;-75
2023/05/12 09:59:03;;;;;;;1.60;1.50;;;18.60;35.40;;;;;;5004056;28;20272;-76
2023/05/12 10:01:29;;;;;;;1.70;1.60;;;19.10;34.70;;;;;;5011264;28;20571;-75
2023/05/12 10:03:57;;;;;;;1.80;1.50;;;19.50;35.50;;;;;;4994372;28;20447;-76
2023/05/12 10:06:23;;;;;;;2.03;1.90;;;19.50;35.60;;;;;;5011493;28;20420;-75
2023/05/12 10:08:54;;;;;;;1.83;1.73;;;19.80;33.30;;;;;;4994100;28;20454;-76
2023/05/12 10:11:21;;;;;;;2.13;1.97;;;19.40;32.70;;;;;;5000311;28;20486;-76
2023/05/12 10:13:47;;;;;;;1.57;1.47;;;20.10;32.40;;;;;;5004152;28;20469;-76
2023/05/12 10:16:14;;;;;;;1.40;1.40;;;19.90;32.00;;;;;;5012432;28;20416;-76
2023/05/12 10:18:43;;;;;;;1.70;1.60;;;19.80;33.10;;;;;;5001997;28;20443;-75
2023/05/12 10:21:10;;;;;;;1.50;1.40;;;20.30;32.90;;;;;;5003829;28;20421;-75
2023/05/12 10:23:39;;;;;;;1.50;1.40;;;20.60;32.40;;;;;;5011627;28;20445;-75
2023/05/12 10:26:05;;;;;;;1.67;1.57;;;20.90;32.30;;;;;;5003490;28;20434;-76
2023/05/12 10:28:30;;;;;;;1.60;1.50;;;21.50;29.60;;;;;;5011093;28;20441;-76
2023/05/12 10:30:58;;;;;;;1.67;1.60;;;21.60;30.00;;;;;;5011945;28;20414;-75
2023/05/12 10:33:24;;;;;;;1.60;1.50;;;21.90;29.20;;;;;;5011624;28;20658;-76
2023/05/12 10:35:51;;;;;;;1.80;1.73;;;22.00;28.30;;;;;;5005531;28;20444;-75
2023/05/12 10:38:20;;;;;;;1.40;1.30;;;22.10;28.80;;;;;;4997308;28;20475;-76
2023/05/12 10:40:52;;;;;;;1.43;1.33;;;22.00;28.10;;;;;;5011981;28;20408;-76
2023/05/12 10:43:27;;;;;;;1.43;1.33;;;21.40;27.70;;;;;;5011467;28;20426;-76
2023/05/12 10:46:28;;;;;;;1.90;1.80;;;21.40;29.00;;;;;;5007041;28;20897;-75
2023/05/12 10:49:14;;;;;;;1.67;1.57;;;21.20;29.30;;;;;;4947827;29;20447;-76
2023/05/12 10:51:42;;;;;;;1.50;1.40;;;20.40;31.50;;;;;;4951018;28;20432;-76
2023/05/12 10:54:10;;;;;;;1.60;1.50;;;20.40;31.10;;;;;;4942781;29;20490;-75
2023/05/12 10:56:35;;;;;;;1.20;1.20;;;20.30;32.60;;;;;;4950772;29;20450;-76
2023/05/12 10:59:17;;;;;;;11.03;2.47;;;19.90;36.70;;;;;;4951710;29;20416;-75
2023/05/12 11:01:59;;;;;;;1.50;1.40;;;19.70;38.60;;;;;;4951798;29;20190;-75
2023/05/12 11:04:51;;;;;;;2.80;1.57;;;19.80;38.20;;;;;;4947407;29;20973;-77
2023/05/12 11:07:25;;;;;;;1.50;1.40;;;19.80;38.30;;;;;;4950372;29;20480;-75
2023/05/12 11:09:52;;;;;;;1.47;1.37;;;19.90;38.50;;;;;;4950963;29;20463;-74
2023/05/12 11:12:18;;;;;;;1.57;1.47;;;19.80;41.00;;;;;;4951423;28;20481;-75
2023/05/12 11:14:44;;;;;;;1.70;1.60;;;19.70;41.40;;;;;;4947518;29;20489;-75
2023/05/12 11:17:11;;;;;;;1.53;1.43;;;19.80;42.30;;;;;;4951086;28;20217;-75
2023/05/12 11:19:38;;;;;;;1.40;1.30;;;20.00;42.50;;;;;;4951088;29;20524;-75
2023/05/12 11:22:10;;;;;;;1.50;1.40;;;20.20;42.10;;;;;;4958894;28;20451;-75
2023/05/12 11:24:37;;;;;;;1.57;1.47;;;20.30;40.30;;;;;;4994303;28;20460;-75
2023/05/12 11:27:04;;;;;;;1.40;1.30;;;20.50;39.70;;;;;;5000505;28;20458;-75
2023/05/12 11:29:30;;;;;;;1.50;1.40;;;19.60;40.00;;;;;;5004798;28;20615;-76
2023/05/12 11:31:57;;;;;;;1.40;1.30;;;19.70;42.20;;;;;;5012325;28;20853;-75
2023/05/12 11:34:24;;;;;;;1.90;1.80;;;20.10;41.70;;;;;;4994368;28;20840;-75
2023/05/12 11:36:53;;;;;;;1.50;1.47;;;20.10;41.70;;;;;;5006903;28;20461;-74
2023/05/12 11:39:20;;;;;;;1.77;1.67;;;20.20;38.40;;;;;;5003465;28;20434;-75
2023/05/12 11:41:46;;;;;;;1.30;1.20;;;20.00;37.80;;;;;;5004697;28;20473;-76
2023/05/12 11:44:23;;;;;;;1.40;1.30;;;20.10;40.10;;;;;;5015296;28;20411;-75
2023/05/12 11:46:55;;;;;;;1.50;1.40;;;20.30;41.80;;;;;;5015754;28;20438;-76
2023/05/12 11:49:20;;;;;;;1.70;1.60;;;20.40;40.40;;;;;;4992698;28;20438;-75
2023/05/12 11:51:46;;;;;;;1.60;1.50;;;20.50;42.10;;;;;;5008624;28;20419;-76
2023/05/12 11:54:11;;;;;;;1.60;1.50;;;20.70;42.30;;;;;;5016098;28;20757;-76
2023/05/12 11:56:37;;;;;;;1.77;1.40;;;20.70;40.80;;;;;;5016520;28;20209;-76
2023/05/12 11:59:03;;;;;;;1.50;1.40;;;20.80;39.60;;;;;;5012420;28;20183;-76
2023/05/12 12:01:29;;;;;;;1.40;1.30;;;21.20;40.20;;;;;;5008620;28;20198;-76
2023/05/12 12:03:54;;;;;;;1.63;1.53;;;21.60;37.60;;;;;;5007012;28;20183;-75
2023/05/12 12:06:21;;;;;;;1.90;1.80;;;21.80;39.30;;;;;;4995291;28;20186;-76
2023/05/12 12:09:01;;;;;;;9.40;1.83;;;21.90;34.40;;;;;;4995146;28;20214;-75
2023/05/12 12:11:27;;;;;;;1.57;1.47;;;21.90;36.50;;;;;;4996760;28;20519;-76
2023/05/12 12:13:56;;;;;;;1.57;1.47;;;21.70;31.70;;;;;;5006138;28;20557;-76
2023/05/12 12:16:30;;;;;;;1.60;1.50;;;21.70;35.20;;;;;;5009082;28;20421;-76
2023/05/12 12:18:56;;;;;;;2.07;1.93;;;21.80;38.00;;;;;;4991510;28;20917;-76
2023/05/12 12:21:23;;;;;;;1.67;1.57;;;21.80;37.80;;;;;;4992145;28;20436;-75
2023/05/12 12:23:49;;;;;;;1.50;1.40;;;22.00;37.50;;;;;;4999997;28;20407;-76
2023/05/12 12:26:15;;;;;;;1.63;1.53;;;22.60;33.70;;;;;;5005355;28;20423;-76
2023/05/12 12:28:47;;;;;;;1.70;1.60;;;22.50;34.50;;;;;;4996399;28;20428;-75
2023/05/12 12:31:13;;;;;;;1.70;1.60;;;22.00;33.20;;;;;;4996023;28;20437;-75
2023/05/12 12:33:39;;;;;;;1.43;1.33;;;22.10;35.50;;;;;;5001370;28;20467;-76
2023/05/12 12:36:05;;;;;;;1.60;1.50;;;22.40;35.60;;;;;;5010103;28;20182;-77
2023/05/12 12:38:31;;;;;;;1.73;1.53;;;22.50;30.90;;;;;;5005585;28;20198;-75
2023/05/12 12:40:57;;;;;;;1.70;1.60;;;22.60;32.70;;;;;;4984208;28;20446;-74
2023/05/12 12:43:22;;;;;;;1.50;1.40;;;22.30;30.00;;;;;;4992967;28;20438;-77
2023/05/12 12:45:48;;;;;;;1.77;1.60;;;21.70;32.60;;;;;;4996016;28;20177;-75
2023/05/12 12:48:13;;;;;;;1.80;1.70;;;22.20;34.90;;;;;;4997610;28;20234;-75